createdAt,value
2022-12-06T00:02:16.312Z,21.64
2022-12-06T00:04:46.525Z,21.63
2022-12-06T00:07:13.750Z,21.61
2022-12-06T00:09:41.140Z,21.61
2022-12-06T00:12:08.361Z,21.60
2022-12-06T00:14:35.530Z,21.54
2022-12-06T00:17:02.731Z,21.57
2022-12-06T00:19:29.925Z,21.56
2022-12-06T00:21:58.465Z,21.53
2022-12-06T00:24:25.715Z,21.49
2022-12-06T00:26:52.888Z,21.51
2022-12-06T00:29:21.912Z,21.46
2022-12-06T00:31:49.590Z,21.46
2022-12-06T00:34:17.233Z,21.48
2022-12-06T00:36:44.564Z,21.48
2022-12-06T00:39:15.306Z,21.42
2022-12-06T00:41:43.130Z,21.48
2022-12-06T00:44:11.631Z,21.51
2022-12-06T00:46:39.413Z,21.58
2022-12-06T00:49:07.869Z,21.57
2022-12-06T00:51:35.739Z,21.60
2022-12-06T00:54:03.494Z,21.60
2022-12-06T00:56:32.482Z,21.47
2022-12-06T00:58:59.669Z,21.54
2022-12-06T01:01:28.594Z,21.55
2022-12-06T01:03:57.998Z,21.54
2022-12-06T01:06:27.468Z,21.42
2022-12-06T01:08:55.412Z,21.49
2022-12-06T01:11:23.471Z,21.46
2022-12-06T01:13:52.682Z,21.46
2022-12-06T01:16:22.672Z,21.45
2022-12-06T01:18:52.487Z,21.41
2022-12-06T01:21:20.341Z,21.41
2022-12-06T01:23:48.431Z,21.37
2022-12-06T01:26:18.110Z,21.45
2022-12-06T01:28:45.402Z,21.42
2022-12-06T01:31:14.728Z,21.45
2022-12-06T01:33:42.260Z,21.46
2022-12-06T01:36:15.872Z,21.48
2022-12-06T01:38:42.985Z,21.49
2022-12-06T01:41:10.090Z,21.57
2022-12-06T01:43:39.882Z,21.62
2022-12-06T01:46:18.125Z,21.57
2022-12-06T01:48:46.027Z,21.51
2022-12-06T01:51:15.755Z,21.46
2022-12-06T01:53:46.945Z,21.50
2022-12-06T01:56:14.477Z,21.46
2022-12-06T01:58:43.730Z,21.46
2022-12-06T02:01:11.378Z,21.37
2022-12-06T02:03:41.011Z,21.41
2022-12-06T02:06:08.958Z,21.43
2022-12-06T02:08:37.725Z,21.42
2022-12-06T02:11:05.831Z,21.39
2022-12-06T02:13:34.433Z,21.42
2022-12-06T02:16:12.120Z,21.38
2022-12-06T02:18:47.120Z,21.36
2022-12-06T02:21:23.799Z,21.33
2022-12-06T02:24:26.750Z,21.39
2022-12-06T02:27:11.563Z,21.50
2022-12-06T02:30:01.272Z,21.43
2022-12-06T02:32:36.173Z,21.47
2022-12-06T02:35:12.221Z,21.46
2022-12-06T02:37:46.730Z,21.51
2022-12-06T02:40:19.558Z,21.49
2022-12-06T02:42:52.832Z,21.46
2022-12-06T02:45:24.876Z,21.40
2022-12-06T02:47:56.310Z,21.35
2022-12-06T02:50:30.207Z,21.42
2022-12-06T02:53:01.127Z,21.42
2022-12-06T02:55:30.307Z,21.41
2022-12-06T02:57:57.676Z,21.39
2022-12-06T03:00:34.707Z,21.40
2022-12-06T03:03:28.791Z,21.37
2022-12-06T03:06:12.185Z,21.35
2022-12-06T03:08:46.206Z,21.34
2022-12-06T03:11:13.897Z,21.32
2022-12-06T03:13:51.863Z,21.32
2022-12-06T03:16:26.130Z,21.31
2022-12-06T03:18:58.887Z,21.36
2022-12-06T03:21:31.015Z,21.45
2022-12-06T03:23:58.626Z,21.42
2022-12-06T03:26:30.862Z,21.47
2022-12-06T03:29:01.729Z,21.35
2022-12-06T03:31:32.223Z,21.43
2022-12-06T03:34:05.125Z,21.38
2022-12-06T03:36:32.998Z,21.39
2022-12-06T03:39:02.635Z,21.39
2022-12-06T03:41:36.212Z,21.18
2022-12-06T03:44:04.001Z,21.41
2022-12-06T03:46:35.024Z,21.41
2022-12-06T03:49:07.761Z,21.39
2022-12-06T03:51:37.371Z,21.37
2022-12-06T03:54:06.967Z,21.37
2022-12-06T03:56:36.036Z,21.35
2022-12-06T03:59:03.499Z,21.67
2022-12-06T04:01:31.050Z,21.80
2022-12-06T04:03:58.287Z,21.88
2022-12-06T04:06:27.495Z,21.81
2022-12-06T04:08:55.112Z,22.02
2022-12-06T04:11:22.379Z,22.09
2022-12-06T04:13:49.554Z,22.15
2022-12-06T04:16:16.753Z,22.28
2022-12-06T04:18:44.365Z,22.36
2022-12-06T04:21:11.590Z,22.37
2022-12-06T04:23:42.609Z,22.36
2022-12-06T04:26:11.979Z,22.35
2022-12-06T04:28:39.192Z,22.34
2022-12-06T04:31:06.331Z,22.26
2022-12-06T04:33:33.479Z,22.29
2022-12-06T04:36:00.579Z,22.26
2022-12-06T04:38:27.676Z,22.23
2022-12-06T04:40:56.183Z,22.20
2022-12-06T04:43:23.280Z,22.16
2022-12-06T04:45:51.315Z,22.07
2022-12-06T04:48:18.455Z,22.03
2022-12-06T04:50:47.462Z,22.00
2022-12-06T04:53:14.627Z,22.02
2022-12-06T04:55:45.483Z,21.96
2022-12-06T04:58:14.673Z,21.81
2022-12-06T05:00:41.850Z,21.66
2022-12-06T05:03:09.454Z,21.77
2022-12-06T05:05:36.802Z,21.76
2022-12-06T05:08:04.646Z,21.74
2022-12-06T05:10:31.824Z,21.71
2022-12-06T05:12:59.283Z,21.89
2022-12-06T05:15:29.423Z,22.00
2022-12-06T05:17:56.842Z,21.85
2022-12-06T05:20:23.965Z,21.80
2022-12-06T05:22:51.254Z,21.81
2022-12-06T05:25:18.413Z,21.79
2022-12-06T05:27:45.523Z,21.74
2022-12-06T05:30:13.258Z,21.76
2022-12-06T05:32:41.776Z,21.79
2022-12-06T05:35:09.490Z,21.72
2022-12-06T05:37:36.594Z,21.74
2022-12-06T05:40:04.403Z,21.74
2022-12-06T05:42:31.553Z,21.67
2022-12-06T05:44:58.649Z,21.65
2022-12-06T05:47:25.805Z,21.60
2022-12-06T05:49:54.296Z,21.55
2022-12-06T05:52:21.407Z,21.50
2022-12-06T05:54:48.515Z,21.52
2022-12-06T05:57:15.692Z,21.51
2022-12-06T05:59:42.861Z,21.51
2022-12-06T06:02:10.096Z,21.58
2022-12-06T06:04:37.348Z,21.66
2022-12-06T06:07:05.832Z,21.66
2022-12-06T06:09:32.950Z,21.70
2022-12-06T06:12:00.052Z,21.74
2022-12-06T06:14:27.156Z,21.69
2022-12-06T06:16:54.335Z,21.63
2022-12-06T06:19:21.477Z,21.64
2022-12-06T06:21:48.584Z,21.60
2022-12-06T06:24:17.181Z,21.59
2022-12-06T06:26:44.299Z,21.61
2022-12-06T06:29:11.412Z,21.58
2022-12-06T06:31:38.590Z,21.56
2022-12-06T06:34:05.723Z,21.55
2022-12-06T06:36:32.817Z,21.51
2022-12-06T06:38:59.964Z,21.46
2022-12-06T06:41:28.427Z,21.47
2022-12-06T06:43:55.542Z,21.44
2022-12-06T06:46:22.766Z,21.46
2022-12-06T06:48:49.926Z,21.43
2022-12-06T06:51:17.047Z,21.53
2022-12-06T06:53:44.306Z,21.54
2022-12-06T06:56:11.415Z,21.55
2022-12-06T06:58:39.960Z,21.34
2022-12-06T07:01:08.729Z,21.59
2022-12-06T07:03:36.076Z,21.58
2022-12-06T07:06:07.126Z,21.57
2022-12-06T07:08:34.385Z,21.45
2022-12-06T07:11:01.604Z,21.52
2022-12-06T07:13:30.403Z,21.53
2022-12-06T07:15:58.952Z,21.51
2022-12-06T07:18:26.147Z,21.46
2022-12-06T07:20:59.487Z,21.47
2022-12-06T07:23:26.652Z,21.47
2022-12-06T07:26:00.912Z,21.45
2022-12-06T07:28:27.815Z,21.42
2022-12-06T07:30:54.957Z,21.39
2022-12-06T07:33:23.535Z,21.41
2022-12-06T07:38:39.658Z,21.38
2022-12-06T07:41:09.279Z,21.41
2022-12-06T07:43:36.398Z,21.43
2022-12-06T07:46:03.602Z,21.47
2022-12-06T07:48:32.398Z,21.51
2022-12-06T07:51:03.762Z,21.48
2022-12-06T07:53:30.876Z,21.46
2022-12-06T07:55:58.042Z,21.48
2022-12-06T07:58:25.192Z,21.52
2022-12-06T08:00:52.301Z,21.47
2022-12-06T08:03:19.419Z,21.48
2022-12-06T08:05:55.346Z,21.47
2022-12-06T08:08:26.800Z,21.45
2022-12-06T08:10:58.753Z,21.41
2022-12-06T08:13:25.867Z,21.42
2022-12-06T08:15:53.037Z,21.42
2022-12-06T08:18:20.187Z,21.43
2022-12-06T08:20:47.370Z,21.36
2022-12-06T08:23:15.902Z,21.33
2022-12-06T08:25:43.007Z,21.35
2022-12-06T08:28:10.178Z,21.38
2022-12-06T08:30:39.557Z,21.40
2022-12-06T08:33:06.872Z,21.41
2022-12-06T08:35:36.669Z,21.44
2022-12-06T08:38:03.758Z,21.45
2022-12-06T08:40:32.395Z,21.49
2022-12-06T08:42:59.511Z,21.47
2022-12-06T08:45:26.675Z,21.48
2022-12-06T08:47:53.803Z,21.44
2022-12-06T08:50:20.918Z,21.47
2022-12-06T08:52:48.030Z,21.42
2022-12-06T08:55:15.316Z,21.40
2022-12-06T08:57:43.964Z,21.40
2022-12-06T09:00:12.529Z,21.41
2022-12-06T09:02:39.799Z,21.38
2022-12-06T09:05:07.704Z,21.39
2022-12-06T09:07:34.955Z,21.35
2022-12-06T09:10:02.467Z,21.37
2022-12-06T09:12:29.716Z,21.32
2022-12-06T09:14:58.220Z,21.33
2022-12-06T09:17:25.370Z,21.34
2022-12-06T09:19:52.502Z,21.42
2022-12-06T09:22:19.618Z,21.44
2022-12-06T09:24:46.732Z,21.51
2022-12-06T09:27:13.836Z,21.56
2022-12-06T09:29:41.134Z,21.51
2022-12-06T09:32:09.792Z,21.50
2022-12-06T09:34:36.908Z,21.46
2022-12-06T09:37:08.025Z,21.43
2022-12-06T09:39:39.698Z,21.40
2022-12-06T09:42:24.698Z,21.39
2022-12-06T09:45:12.771Z,21.37
2022-12-06T09:47:57.953Z,21.36
2022-12-06T09:50:34.367Z,21.23
2022-12-06T09:53:14.765Z,21.26
2022-12-06T09:55:53.457Z,21.30
2022-12-06T09:58:38.332Z,21.28
2022-12-06T10:01:16.631Z,21.30
2022-12-06T10:04:14.635Z,21.24
2022-12-06T10:06:51.812Z,21.28
2022-12-06T10:09:32.295Z,21.34
2022-12-06T10:12:21.905Z,21.36
2022-12-06T10:15:18.037Z,21.47
2022-12-06T10:18:00.665Z,21.45
2022-12-06T10:20:38.570Z,21.42
2022-12-06T10:23:21.384Z,21.41
2022-12-06T10:25:57.910Z,21.41
2022-12-06T10:28:38.622Z,21.35
2022-12-06T10:31:18.269Z,21.30
2022-12-06T10:33:54.160Z,21.31
2022-12-06T10:36:35.024Z,21.30
2022-12-06T10:39:09.851Z,21.33
2022-12-06T10:41:43.386Z,21.34
2022-12-06T10:44:19.536Z,21.31
2022-12-06T10:46:51.570Z,21.29
2022-12-06T10:49:25.034Z,21.31
2022-12-06T10:52:02.133Z,21.26
2022-12-06T10:54:36.841Z,21.24
2022-12-06T10:57:10.778Z,21.18
2022-12-06T10:59:43.861Z,21.24
2022-12-06T11:02:23.597Z,21.24
2022-12-06T11:04:53.508Z,21.30
2022-12-06T11:07:26.816Z,21.33
2022-12-06T11:09:55.784Z,21.33
2022-12-06T11:12:31.196Z,21.35
2022-12-06T11:15:04.454Z,21.37
2022-12-06T11:17:36.543Z,21.38
2022-12-06T11:20:14.701Z,21.38
2022-12-06T11:22:51.851Z,21.34
2022-12-06T11:25:25.539Z,21.31
2022-12-06T11:27:56.203Z,21.16
2022-12-06T11:30:23.332Z,21.22
2022-12-06T11:32:52.089Z,21.26
2022-12-06T11:35:21.728Z,21.23
2022-12-06T11:37:54.900Z,21.24
2022-12-06T11:40:26.850Z,21.22
2022-12-06T11:42:55.901Z,21.22
2022-12-06T11:45:26.555Z,21.19
2022-12-06T11:47:54.923Z,21.19
2022-12-06T11:50:22.703Z,21.16
2022-12-06T11:52:55.547Z,21.16
2022-12-06T11:55:25.674Z,21.20
2022-12-06T11:57:59.067Z,21.27
2022-12-06T12:00:26.884Z,21.27
2022-12-06T12:02:55.859Z,21.29
2022-12-06T12:05:25.418Z,21.33
2022-12-06T12:07:58.419Z,21.36
2022-12-06T12:10:31.530Z,21.36
2022-12-06T12:13:17.441Z,21.36
2022-12-06T12:15:51.152Z,21.32
2022-12-06T12:18:25.137Z,21.28
2022-12-06T12:20:54.871Z,21.26
2022-12-06T12:23:28.149Z,21.26
2022-12-06T12:26:03.035Z,21.23
2022-12-06T12:28:34.985Z,21.24
2022-12-06T12:31:10.650Z,21.21
2022-12-06T12:33:37.811Z,21.21
2022-12-06T12:36:17.162Z,21.23
2022-12-06T12:38:55.018Z,21.12
2022-12-06T12:41:26.964Z,21.13
2022-12-06T12:44:20.825Z,21.12
2022-12-06T12:46:52.574Z,21.17
2022-12-06T12:49:26.566Z,21.22
2022-12-06T12:51:54.360Z,21.27
2022-12-06T12:54:27.608Z,21.22
2022-12-06T12:56:55.632Z,21.28
2022-12-06T12:59:25.006Z,21.29
2022-12-06T13:01:57.097Z,21.35
2022-12-06T13:04:37.515Z,21.27
2022-12-06T13:07:07.626Z,21.23
2022-12-06T13:09:45.306Z,21.12
2022-12-06T13:12:19.151Z,21.21
2022-12-06T13:14:53.296Z,21.18
2022-12-06T13:17:24.824Z,21.18
2022-12-06T13:19:53.668Z,21.14
2022-12-06T13:22:24.876Z,21.15
2022-12-06T13:24:59.309Z,21.16
2022-12-06T13:27:30.163Z,21.14
2022-12-06T13:30:01.729Z,21.14
2022-12-06T13:32:33.042Z,21.13
2022-12-06T13:35:06.916Z,21.08
2022-12-06T13:37:37.499Z,21.14
2022-12-06T13:40:53.541Z,21.12
2022-12-06T13:43:53.865Z,21.23
2022-12-06T13:46:24.310Z,21.21
2022-12-06T13:48:52.904Z,21.12
2022-12-06T13:51:41.910Z,21.19
2022-12-06T13:54:28.904Z,21.18
2022-12-06T13:56:59.303Z,21.17
2022-12-06T13:59:47.101Z,21.19
2022-12-06T14:02:50.735Z,21.16
2022-12-06T14:08:26.569Z,21.13
2022-12-06T14:11:05.190Z,21.10
2022-12-06T14:13:34.046Z,21.08
2022-12-06T14:16:01.430Z,21.06
2022-12-06T14:18:28.739Z,21.06
2022-12-06T14:20:57.860Z,21.04
2022-12-06T14:23:29.087Z,21.04
2022-12-06T14:26:19.124Z,21.02
2022-12-06T14:28:49.135Z,21.00
2022-12-06T14:31:23.299Z,21.08
2022-12-06T14:33:50.392Z,21.07
2022-12-06T14:36:21.374Z,21.23
2022-12-06T14:38:55.511Z,21.22
2022-12-06T14:41:29.877Z,21.19
2022-12-06T14:43:58.489Z,21.30
2022-12-06T14:46:26.544Z,21.38
2022-12-06T14:48:53.831Z,21.87
2022-12-06T14:51:23.654Z,22.25
2022-12-06T14:53:51.433Z,22.48
2022-12-06T14:56:23.890Z,22.60
2022-12-06T14:58:51.555Z,22.72
2022-12-06T15:01:22.024Z,22.68
2022-12-06T15:03:58.162Z,22.78
2022-12-06T15:06:27.217Z,22.75
2022-12-06T15:09:10.630Z,22.71
2022-12-06T15:11:39.492Z,22.66
2022-12-06T15:14:13.297Z,22.61
2022-12-06T15:16:43.820Z,22.52
2022-12-06T15:19:13.178Z,22.41
2022-12-06T15:21:40.665Z,22.42
2022-12-06T15:24:18.019Z,22.43
2022-12-06T15:26:45.285Z,22.37
2022-12-06T15:29:12.407Z,22.21
2022-12-06T15:31:43.503Z,22.05
2022-12-06T15:34:21.639Z,21.92
2022-12-06T15:36:49.155Z,21.97
2022-12-06T15:39:16.715Z,21.87
2022-12-06T15:41:44.666Z,21.74
2022-12-06T15:44:13.553Z,21.77
2022-12-06T15:46:42.889Z,21.67
2022-12-06T15:49:14.053Z,21.66
2022-12-06T15:51:41.524Z,21.68
2022-12-06T15:54:15.400Z,21.70
2022-12-06T15:56:42.715Z,21.71
2022-12-06T15:59:09.887Z,21.63
2022-12-06T16:01:44.792Z,21.52
2022-12-06T16:04:18.502Z,21.56
2022-12-06T16:06:46.378Z,21.51
2022-12-06T16:09:14.725Z,21.57
2022-12-06T16:11:42.457Z,21.45
2022-12-06T16:14:09.700Z,21.43
2022-12-06T16:16:41.595Z,21.43
2022-12-06T16:19:10.580Z,21.34
2022-12-06T16:21:53.172Z,21.38
2022-12-06T16:24:20.671Z,21.40
2022-12-06T16:26:48.211Z,21.40
2022-12-06T16:29:17.429Z,21.50
2022-12-06T16:31:44.781Z,21.48
2022-12-06T16:34:12.189Z,21.48
2022-12-06T16:36:58.266Z,21.43
2022-12-06T16:39:25.737Z,21.40
2022-12-06T16:41:52.922Z,21.40
2022-12-06T16:44:20.068Z,21.37
2022-12-06T16:46:47.318Z,21.34
2022-12-06T16:52:06.727Z,21.34
2022-12-06T16:54:34.415Z,21.34
2022-12-06T16:57:01.601Z,21.16
2022-12-06T16:59:28.764Z,21.27
2022-12-06T17:01:55.884Z,21.28
2022-12-06T17:04:22.993Z,21.26
2022-12-06T17:06:50.278Z,21.26
2022-12-06T17:09:18.766Z,21.19
2022-12-06T17:11:45.884Z,21.23
2022-12-06T17:14:13.947Z,21.24
2022-12-06T17:16:42.320Z,21.31
2022-12-06T17:19:13.898Z,21.16
2022-12-06T17:21:41.076Z,21.36
2022-12-06T17:24:10.072Z,21.37
2022-12-06T17:26:39.010Z,21.35
2022-12-06T17:29:07.103Z,21.31
2022-12-06T17:31:35.823Z,21.31
2022-12-06T17:34:04.036Z,21.34
2022-12-06T17:36:31.237Z,21.28
2022-12-06T17:38:58.340Z,21.27
2022-12-06T17:41:28.267Z,21.25
2022-12-06T17:43:56.738Z,21.22
2022-12-06T17:46:23.947Z,21.23
2022-12-06T17:48:51.138Z,21.23
2022-12-06T17:51:18.257Z,21.22
2022-12-06T17:53:45.358Z,21.19
2022-12-06T17:56:23.176Z,21.15
2022-12-06T17:58:50.490Z,21.15
2022-12-06T18:01:19.266Z,21.15
2022-12-06T18:03:46.467Z,21.19
2022-12-06T18:06:13.581Z,21.18
2022-12-06T18:08:40.675Z,21.23
2022-12-06T18:11:07.951Z,21.27
2022-12-06T18:13:35.065Z,21.25
2022-12-06T18:16:13.139Z,21.27
2022-12-06T18:18:41.857Z,21.27
2022-12-06T18:21:09.369Z,21.24
2022-12-06T18:23:40.907Z,21.24
2022-12-06T18:26:16.262Z,21.26
2022-12-06T18:28:45.127Z,21.45
2022-12-06T18:31:12.703Z,21.73
2022-12-06T18:33:41.207Z,22.23
2022-12-06T18:36:09.146Z,22.65
2022-12-06T18:38:36.487Z,22.93
2022-12-06T18:41:05.584Z,23.10
2022-12-06T18:43:33.334Z,23.11
2022-12-06T18:46:01.498Z,23.17
2022-12-06T18:48:29.362Z,23.10
2022-12-06T18:50:58.219Z,23.00
2022-12-06T18:53:25.333Z,22.91
2022-12-06T18:55:52.459Z,22.80
2022-12-06T18:58:19.774Z,22.78
2022-12-06T19:00:46.957Z,22.69
2022-12-06T19:03:14.281Z,22.72
2022-12-06T19:06:02.050Z,22.75
2022-12-06T19:08:29.837Z,22.71
2022-12-06T19:11:00.730Z,22.63
2022-12-06T19:13:27.832Z,22.53
2022-12-06T19:16:00.869Z,22.57
2022-12-06T19:18:28.019Z,22.49
2022-12-06T19:20:59.186Z,22.46
2022-12-06T19:23:26.812Z,22.26
2022-12-06T19:26:00.014Z,22.38
2022-12-06T19:28:27.441Z,22.36
2022-12-06T19:30:58.632Z,22.37
2022-12-06T19:33:25.903Z,22.35
2022-12-06T19:35:57.602Z,22.18
2022-12-06T19:38:24.833Z,22.43
2022-12-06T19:40:52.019Z,22.49
2022-12-06T19:43:20.650Z,22.42
2022-12-06T19:45:47.820Z,22.44
2022-12-06T19:48:14.954Z,22.27
2022-12-06T19:50:42.071Z,22.34
2022-12-06T19:53:09.172Z,22.27
2022-12-06T19:55:36.276Z,22.41
2022-12-06T19:58:03.732Z,22.54
2022-12-06T20:00:32.223Z,22.60
2022-12-06T20:02:59.405Z,22.57
2022-12-06T20:05:26.610Z,22.58
2022-12-06T20:07:53.767Z,22.57
2022-12-06T20:10:20.939Z,22.50
2022-12-06T20:12:48.058Z,22.50
2022-12-06T20:15:15.161Z,22.48
2022-12-06T20:17:43.673Z,22.51
2022-12-06T20:20:11.292Z,22.54
2022-12-06T20:22:38.402Z,22.51
2022-12-06T20:25:06.157Z,22.57
2022-12-06T20:27:33.309Z,22.53
2022-12-06T20:30:00.897Z,22.57
2022-12-06T20:32:28.297Z,22.45
2022-12-06T20:34:56.806Z,22.32
2022-12-06T20:37:23.917Z,22.26
2022-12-06T20:39:51.013Z,22.31
2022-12-06T20:42:18.204Z,22.25
2022-12-06T20:44:45.315Z,22.21
2022-12-06T20:47:12.463Z,22.31
2022-12-06T20:49:39.655Z,22.33
2022-12-06T20:52:08.125Z,22.37
2022-12-06T20:54:35.312Z,22.36
2022-12-06T20:57:02.540Z,22.50
2022-12-06T20:59:29.735Z,22.44
2022-12-06T21:01:56.978Z,22.32
2022-12-06T21:04:24.316Z,22.18
2022-12-06T21:06:51.514Z,22.15
2022-12-06T21:09:20.141Z,22.11
2022-12-06T21:11:47.377Z,22.07
2022-12-06T21:14:15.823Z,22.11
2022-12-06T21:16:43.548Z,22.00
2022-12-06T21:19:14.369Z,22.06
2022-12-06T21:21:44.239Z,22.00
2022-12-06T21:24:13.218Z,21.89
2022-12-06T21:26:41.970Z,21.80
2022-12-06T21:29:14.706Z,21.78
2022-12-06T21:31:41.883Z,21.80
2022-12-06T21:34:10.125Z,21.77
2022-12-06T21:36:37.639Z,21.78
2022-12-06T21:39:05.471Z,21.82
2022-12-06T21:41:32.625Z,21.88
2022-12-06T21:44:01.197Z,21.85
2022-12-06T21:46:28.417Z,21.81
2022-12-06T21:48:57.833Z,21.79
2022-12-06T21:51:26.405Z,21.75
2022-12-06T21:53:54.433Z,21.79
2022-12-06T21:56:23.345Z,21.79
2022-12-06T21:58:51.135Z,21.76
2022-12-06T22:01:21.699Z,21.79
2022-12-06T22:03:49.524Z,21.83
2022-12-06T22:06:16.745Z,21.79
2022-12-06T22:08:45.276Z,21.78
2022-12-06T22:11:14.486Z,21.70
2022-12-06T22:13:41.813Z,21.67
2022-12-06T22:16:11.070Z,21.63
2022-12-06T22:18:44.752Z,21.63
2022-12-06T22:21:15.145Z,21.60
2022-12-06T22:23:42.805Z,21.61
2022-12-06T22:26:13.389Z,21.40
2022-12-06T22:28:40.768Z,21.62
2022-12-06T22:31:10.940Z,21.54
2022-12-06T22:33:40.376Z,21.73
2022-12-06T22:36:08.529Z,21.77
2022-12-06T22:38:35.968Z,21.75
2022-12-06T22:41:04.010Z,21.71
2022-12-06T22:43:31.635Z,21.74
2022-12-06T22:46:04.691Z,21.58
2022-12-06T22:48:31.908Z,21.71
2022-12-06T22:51:11.867Z,21.67
2022-12-06T22:53:39.285Z,21.69
2022-12-06T22:56:06.870Z,21.67
2022-12-06T22:58:34.440Z,21.64
2022-12-06T23:01:11.781Z,21.63
2022-12-06T23:03:43.062Z,21.63
2022-12-06T23:06:12.112Z,21.57
2022-12-06T23:08:39.417Z,21.60
2022-12-06T23:11:09.053Z,21.57
2022-12-06T23:13:36.972Z,21.49
2022-12-06T23:16:06.211Z,21.52
2022-12-06T23:18:34.567Z,21.56
2022-12-06T23:21:04.438Z,21.62
2022-12-06T23:23:33.110Z,21.67
2022-12-06T23:26:04.143Z,21.69
2022-12-06T23:28:31.642Z,21.70
2022-12-06T23:31:02.447Z,21.60
2022-12-06T23:33:29.780Z,21.63
2022-12-06T23:36:02.222Z,21.63
2022-12-06T23:38:29.371Z,21.63
2022-12-06T23:41:02.698Z,21.60
2022-12-06T23:43:29.816Z,21.61
2022-12-06T23:46:00.059Z,21.60
2022-12-06T23:48:30.508Z,21.59
2022-12-06T23:51:01.499Z,21.60
2022-12-06T23:53:29.418Z,21.57
2022-12-06T23:55:58.117Z,21.54
2022-12-06T23:58:27.934Z,21.52
